createdAt,value
2018-04-25T00:12:16.909Z,0.00
2018-04-25T00:13:16.888Z,0.00
2018-04-25T00:15:09.665Z,0.00
2018-04-25T00:16:09.601Z,0.00
2018-04-25T00:17:09.555Z,0.00
2018-04-25T00:18:09.508Z,0.00
2018-04-25T00:19:09.465Z,0.00
2018-04-25T00:20:09.419Z,0.00
2018-04-25T00:21:09.376Z,0.00
2018-04-25T00:22:09.329Z,0.00
2018-04-25T00:23:09.291Z,0.00
2018-04-25T00:24:09.260Z,0.00
2018-04-25T00:25:09.204Z,0.00
2018-04-25T00:26:09.162Z,0.00
2018-04-25T00:27:09.119Z,0.00
2018-04-25T00:28:09.073Z,0.00
2018-04-25T00:29:09.041Z,0.00
2018-04-25T00:30:08.996Z,0.00
2018-04-25T00:31:08.950Z,0.00
2018-04-25T00:32:08.904Z,0.00
2018-04-25T00:33:08.863Z,0.00
2018-04-25T00:34:08.818Z,0.00
2018-04-25T00:35:08.777Z,0.00
2018-04-25T00:36:08.744Z,0.00
2018-04-25T00:37:08.692Z,0.00
2018-04-25T00:38:08.652Z,0.00
2018-04-25T00:39:08.608Z,0.00
2018-04-25T00:40:08.571Z,0.00
2018-04-25T00:41:08.525Z,0.00
2018-04-25T00:42:08.482Z,0.00
2018-04-25T00:43:08.449Z,0.00
2018-04-25T00:44:08.404Z,0.00
2018-04-25T00:45:08.354Z,0.00
2018-04-25T00:46:08.316Z,0.00
2018-04-25T00:47:08.279Z,0.00
2018-04-25T00:48:08.243Z,0.00
2018-04-25T00:49:08.186Z,0.00
2018-04-25T00:50:08.146Z,0.00
2018-04-25T00:51:08.102Z,0.00
2018-04-25T00:52:08.061Z,0.00
2018-04-25T00:53:08.020Z,0.00
2018-04-25T00:54:07.978Z,0.00
2018-04-25T00:55:07.936Z,0.00
2018-04-25T00:56:07.897Z,0.00
2018-04-25T00:57:07.849Z,0.00
2018-04-25T00:58:07.817Z,0.00
2018-04-25T00:59:07.776Z,0.00
2018-04-25T01:00:07.726Z,0.00
2018-04-25T01:01:07.690Z,0.00
2018-04-25T01:02:07.652Z,0.00
2018-04-25T01:03:07.597Z,0.00
2018-04-25T01:04:07.559Z,0.00
2018-04-25T01:05:07.516Z,0.00
2018-04-25T01:06:07.483Z,0.00
2018-04-25T01:07:07.434Z,0.00
2018-04-25T01:08:07.389Z,0.00
2018-04-25T01:09:07.352Z,0.00
2018-04-25T01:10:07.311Z,0.00
2018-04-25T01:11:07.270Z,0.00
2018-04-25T01:12:07.223Z,0.00
2018-04-25T01:13:07.181Z,0.00
2018-04-25T01:14:07.138Z,0.00
2018-04-25T01:15:07.101Z,0.00
2018-04-25T01:16:07.054Z,0.00
2018-04-25T01:17:07.013Z,0.00
2018-04-25T01:18:06.967Z,0.00
2018-04-25T01:19:06.934Z,0.00
2018-04-25T01:20:06.888Z,0.00
2018-04-25T01:21:06.882Z,0.00
2018-04-25T01:22:06.810Z,0.00
2018-04-25T01:23:06.765Z,0.00
2018-04-25T01:24:06.724Z,0.00
2018-04-25T01:25:06.701Z,0.00
2018-04-25T01:26:06.636Z,0.00
2018-04-25T01:27:06.594Z,0.00
2018-04-25T01:28:06.564Z,0.00
2018-04-25T01:29:06.508Z,0.00
2018-04-25T01:30:06.467Z,0.00
2018-04-25T01:31:06.432Z,0.00
2018-04-25T01:32:06.387Z,0.00
2018-04-25T01:33:06.339Z,0.00
2018-04-25T01:34:06.302Z,0.00
2018-04-25T01:35:06.259Z,0.00
2018-04-25T01:36:06.234Z,0.00
2018-04-25T01:37:06.177Z,0.00
2018-04-25T01:38:06.132Z,0.00
2018-04-25T01:39:06.091Z,0.00
2018-04-25T01:40:06.055Z,0.00
2018-04-25T01:41:06.018Z,0.00
2018-04-25T01:42:05.965Z,0.00
2018-04-25T01:43:05.925Z,0.00
2018-04-25T01:44:05.882Z,0.00
2018-04-25T01:45:05.837Z,0.00
2018-04-25T01:46:05.804Z,0.00
2018-04-25T01:47:05.757Z,0.00
2018-04-25T01:48:05.714Z,0.00
2018-04-25T01:49:05.675Z,0.00
2018-04-25T01:50:05.637Z,0.00
2018-04-25T01:51:05.590Z,0.00
2018-04-25T01:52:05.542Z,0.00
2018-04-25T01:53:05.505Z,0.00
2018-04-25T01:54:05.464Z,0.00
2018-04-25T01:55:05.421Z,0.00
2018-04-25T01:56:05.381Z,0.00
2018-04-25T01:57:05.350Z,0.00
2018-04-25T01:58:05.295Z,0.00
2018-04-25T01:59:05.259Z,0.00
2018-04-25T02:00:05.212Z,0.00
2018-04-25T02:01:05.170Z,0.00
2018-04-25T02:02:05.123Z,0.00
2018-04-25T02:03:05.087Z,0.00
2018-04-25T02:04:05.046Z,0.00
2018-04-25T02:05:05.003Z,0.00
2018-04-25T02:06:04.957Z,0.00
2018-04-25T02:07:04.916Z,0.00
2018-04-25T02:08:04.876Z,0.00
2018-04-25T02:09:04.833Z,0.00
2018-04-25T02:10:04.795Z,0.00
2018-04-25T02:11:04.751Z,0.00
2018-04-25T02:12:04.709Z,0.00
2018-04-25T02:13:04.670Z,0.00
2018-04-25T02:14:04.624Z,0.00
2018-04-25T02:15:04.585Z,0.00
2018-04-25T02:16:04.547Z,0.00
2018-04-25T02:17:04.500Z,0.00
2018-04-25T02:18:04.492Z,0.00
2018-04-25T02:19:04.415Z,0.00
2018-04-25T02:20:04.378Z,0.00
2018-04-25T02:21:04.328Z,0.00
2018-04-25T02:22:04.289Z,0.00
2018-04-25T02:23:04.248Z,0.00
2018-04-25T02:24:04.205Z,0.00
2018-04-25T02:25:04.184Z,0.00
2018-04-25T02:26:04.121Z,0.00
2018-04-25T02:27:04.083Z,0.00
2018-04-25T02:28:04.037Z,0.00
2018-04-25T02:29:03.995Z,0.00
2018-04-25T02:30:03.952Z,0.00
2018-04-25T02:31:03.914Z,0.00
2018-04-25T02:32:03.874Z,0.00
2018-04-25T02:33:03.828Z,0.00
2018-04-25T02:34:03.788Z,0.00
2018-04-25T02:35:03.743Z,0.00
2018-04-25T02:36:03.704Z,0.00
2018-04-25T02:37:03.665Z,0.00
2018-04-25T02:38:03.617Z,0.00
2018-04-25T02:39:03.582Z,0.00
2018-04-25T02:40:03.549Z,0.00
2018-04-25T02:41:03.503Z,0.00
2018-04-25T02:42:03.451Z,0.00
2018-04-25T02:43:03.415Z,0.00
2018-04-25T02:44:03.367Z,0.00
2018-04-25T02:45:03.327Z,0.00
2018-04-25T02:46:03.285Z,0.00
2018-04-25T02:47:03.242Z,0.00
2018-04-25T02:48:03.198Z,0.00
2018-04-25T02:49:03.157Z,0.00
2018-04-25T02:50:03.124Z,0.00
2018-04-25T02:51:03.072Z,0.00
2018-04-25T02:52:03.045Z,0.00
2018-04-25T02:53:02.993Z,0.00
2018-04-25T02:54:02.947Z,0.00
2018-04-25T02:55:02.908Z,0.00
2018-04-25T02:56:02.863Z,0.00
2018-04-25T02:57:02.824Z,0.00
2018-04-25T02:58:02.780Z,0.00
2018-04-25T02:59:02.739Z,0.00
2018-04-25T03:00:02.703Z,0.00
2018-04-25T03:01:02.654Z,0.00
2018-04-25T03:02:02.612Z,0.00
2018-04-25T03:03:02.573Z,0.00
2018-04-25T03:04:02.530Z,0.00
2018-04-25T03:05:02.488Z,0.00
2018-04-25T03:06:02.454Z,0.00
2018-04-25T03:07:02.419Z,0.00
2018-04-25T03:08:02.364Z,0.00
2018-04-25T03:09:02.325Z,0.00
2018-04-25T03:10:02.276Z,0.00
2018-04-25T03:11:02.233Z,0.00
2018-04-25T03:12:02.193Z,0.00
2018-04-25T03:13:02.152Z,0.00
2018-04-25T03:14:02.113Z,0.00
2018-04-25T03:15:02.085Z,0.00
2018-04-25T03:16:02.025Z,0.00
2018-04-25T03:17:01.988Z,0.00
2018-04-25T03:18:01.950Z,0.00
2018-04-25T03:19:01.899Z,0.00
2018-04-25T03:20:01.859Z,0.00
2018-04-25T03:21:01.816Z,0.00
2018-04-25T03:22:01.776Z,0.00
2018-04-25T03:23:01.744Z,0.00
2018-04-25T03:24:01.691Z,0.00
2018-04-25T03:25:01.646Z,0.00
2018-04-25T03:26:01.608Z,0.00
2018-04-25T03:27:01.566Z,0.00
2018-04-25T03:28:01.519Z,0.00
2018-04-25T03:29:01.480Z,0.00
2018-04-25T03:30:01.438Z,0.00
2018-04-25T03:31:01.399Z,0.00
2018-04-25T03:32:01.355Z,0.00
2018-04-25T03:33:01.308Z,0.00
2018-04-25T03:34:01.268Z,0.00
2018-04-25T03:35:01.228Z,0.00
2018-04-25T03:36:01.192Z,0.00
2018-04-25T03:37:01.145Z,0.00
2018-04-25T03:38:01.105Z,0.00
2018-04-25T03:39:01.065Z,0.00
2018-04-25T03:40:01.017Z,0.00
2018-04-25T03:41:00.993Z,0.00
2018-04-25T03:42:00.936Z,0.00
2018-04-25T03:43:00.897Z,0.00
2018-04-25T03:44:00.853Z,0.00
2018-04-25T03:45:00.811Z,0.00
2018-04-25T03:46:00.764Z,0.00
2018-04-25T03:47:00.723Z,0.00
2018-04-25T03:48:00.687Z,0.00
2018-04-25T03:49:00.641Z,0.00
2018-04-25T03:50:00.599Z,0.00
2018-04-25T03:51:00.557Z,0.00
2018-04-25T03:52:00.512Z,0.00
2018-04-25T03:53:00.476Z,0.00
2018-04-25T03:54:00.430Z,0.00
2018-04-25T03:55:00.394Z,0.00
2018-04-25T03:56:00.346Z,0.00
2018-04-25T03:57:00.304Z,0.00
2018-04-25T03:58:00.268Z,0.00
2018-04-25T03:59:00.233Z,0.00
2018-04-25T04:00:00.180Z,0.00
2018-04-25T04:01:00.133Z,0.00
2018-04-25T04:02:00.108Z,0.00
2018-04-25T04:03:00.058Z,0.00
2018-04-25T04:04:00.009Z,0.00
2018-04-25T04:04:59.966Z,0.00
2018-04-25T04:05:59.926Z,0.00
2018-04-25T04:06:59.884Z,0.00
2018-04-25T04:07:59.842Z,0.00
2018-04-25T04:08:59.797Z,0.00
2018-04-25T04:09:59.755Z,0.00
2018-04-25T04:10:59.718Z,0.00
2018-04-25T04:11:59.672Z,0.00
2018-04-25T04:12:59.669Z,0.00
2018-04-25T04:13:59.591Z,0.00
2018-04-25T04:14:59.552Z,0.00
2018-04-25T04:15:59.507Z,0.00
2018-04-25T04:16:59.468Z,0.00
2018-04-25T04:17:59.422Z,0.00
2018-04-25T04:18:59.380Z,0.00
2018-04-25T04:19:59.337Z,0.00
2018-04-25T04:20:59.300Z,0.00
2018-04-25T04:21:59.252Z,0.00
2018-04-25T04:22:59.215Z,0.00
2018-04-25T04:23:59.172Z,0.00
2018-04-25T04:24:59.193Z,0.00
2018-04-25T04:25:59.100Z,0.00
2018-04-25T04:26:59.044Z,0.00
2018-04-25T04:27:59.001Z,0.00
2018-04-25T04:28:58.965Z,4.00
2018-04-25T04:29:58.918Z,4.00
2018-04-25T04:30:58.875Z,4.00
2018-04-25T04:31:58.867Z,0.00
2018-04-25T04:32:58.791Z,4.00
2018-04-25T04:33:58.749Z,0.00
2018-04-25T04:34:58.706Z,0.00
2018-04-25T04:35:58.668Z,4.00
2018-04-25T04:36:58.631Z,0.00
2018-04-25T04:37:58.588Z,0.00
2018-04-25T04:38:58.540Z,4.00
2018-04-25T04:39:58.498Z,4.00
2018-04-25T04:40:58.458Z,4.00
2018-04-25T04:41:58.415Z,0.00
2018-04-25T04:42:58.367Z,0.00
2018-04-25T04:43:58.329Z,0.00
2018-04-25T04:44:58.286Z,4.00
2018-04-25T04:45:58.270Z,0.00
2018-04-25T04:46:58.265Z,0.00
2018-04-25T04:47:58.164Z,0.00
2018-04-25T04:48:58.118Z,0.00
2018-04-25T04:49:58.077Z,0.00
2018-04-25T04:50:58.043Z,4.00
2018-04-25T04:51:57.994Z,4.00
2018-04-25T04:52:57.952Z,4.00
2018-04-25T04:53:57.911Z,4.00
2018-04-25T04:54:57.866Z,4.00
2018-04-25T04:55:57.830Z,4.00
2018-04-25T04:56:57.780Z,0.00
2018-04-25T04:57:57.739Z,0.00
2018-04-25T04:58:57.725Z,4.00
2018-04-25T04:59:57.656Z,4.00
2018-04-25T05:00:57.619Z,4.00
2018-04-25T05:01:57.573Z,0.00
2018-04-25T05:02:57.530Z,4.00
2018-04-25T05:03:57.489Z,0.00
2018-04-25T05:04:57.445Z,4.00
2018-04-25T05:05:57.403Z,4.00
2018-04-25T05:06:57.370Z,4.00
2018-04-25T05:07:57.318Z,0.00
2018-04-25T05:08:57.276Z,0.00
2018-04-25T05:09:57.248Z,0.00
2018-04-25T05:10:57.194Z,0.00
2018-04-25T05:11:57.151Z,0.00
2018-04-25T05:12:57.109Z,0.00
2018-04-25T05:13:57.070Z,4.00
2018-04-25T05:14:57.027Z,4.00
2018-04-25T05:15:56.984Z,4.00
2018-04-25T05:16:56.940Z,4.00
2018-04-25T05:17:56.897Z,4.00
2018-04-25T05:18:56.855Z,4.00
2018-04-25T05:19:56.818Z,8.00
2018-04-25T05:20:56.772Z,4.00
2018-04-25T05:21:56.734Z,4.00
2018-04-25T05:22:56.692Z,4.00
2018-04-25T05:23:56.658Z,8.00
2018-04-25T05:24:56.607Z,4.00
2018-04-25T05:25:56.566Z,4.00
2018-04-25T05:26:56.520Z,4.00
2018-04-25T05:27:56.483Z,4.00
2018-04-25T05:28:56.435Z,4.00
2018-04-25T05:29:56.398Z,0.00
2018-04-25T05:30:56.353Z,0.00
2018-04-25T05:31:56.363Z,4.00
2018-04-25T05:32:56.277Z,4.00
2018-04-25T05:33:56.228Z,4.00
2018-04-25T05:34:56.187Z,0.00
2018-04-25T05:35:56.143Z,0.00
2018-04-25T05:36:56.096Z,0.00
2018-04-25T05:37:56.057Z,0.00
2018-04-25T05:38:56.015Z,0.00
2018-04-25T05:39:55.968Z,0.00
2018-04-25T05:40:55.959Z,0.00
2018-04-25T05:41:55.995Z,4.00
2018-04-25T05:42:55.909Z,4.00
2018-04-25T05:43:55.827Z,4.00
2018-04-25T05:44:55.766Z,4.00
2018-04-25T05:45:55.721Z,4.00
2018-04-25T05:46:55.679Z,12.00
2018-04-25T05:47:55.637Z,4.00
2018-04-25T05:48:55.593Z,4.00
2018-04-25T05:49:55.549Z,4.00
2018-04-25T05:50:55.513Z,8.00
2018-04-25T05:51:55.466Z,8.00
2018-04-25T05:52:55.423Z,16.00
2018-04-25T05:53:55.388Z,12.00
2018-04-25T05:54:55.343Z,16.00
2018-04-25T05:55:55.308Z,12.00
2018-04-25T05:56:55.267Z,8.00
2018-04-25T05:57:55.246Z,4.00
2018-04-25T05:58:55.203Z,4.00
2018-04-25T05:59:55.133Z,4.00
2018-04-25T06:00:55.088Z,4.00
2018-04-25T06:01:55.045Z,4.00
2018-04-25T06:02:55.004Z,8.00
2018-04-25T06:03:54.961Z,8.00
2018-04-25T06:04:54.925Z,12.00
2018-04-25T06:05:54.878Z,8.00
2018-04-25T06:06:54.835Z,20.00
2018-04-25T06:07:54.800Z,4.00
2018-04-25T06:08:54.755Z,20.00
2018-04-25T06:09:54.707Z,20.00
2018-04-25T06:10:54.670Z,20.00
2018-04-25T06:11:54.626Z,20.00
2018-04-25T06:12:54.589Z,20.00
2018-04-25T06:13:54.542Z,8.00
2018-04-25T06:14:54.499Z,8.00
2018-04-25T06:15:54.457Z,20.00
2018-04-25T06:16:54.420Z,20.00
2018-04-25T06:17:54.375Z,8.00
2018-04-25T06:18:54.328Z,20.00
2018-04-25T06:19:54.288Z,16.00
2018-04-25T06:20:54.244Z,24.00
2018-04-25T06:21:54.203Z,24.00
2018-04-25T06:22:54.168Z,20.00
2018-04-25T06:23:54.121Z,20.00
2018-04-25T06:24:54.078Z,24.00
2018-04-25T06:25:54.037Z,28.00
2018-04-25T06:26:53.994Z,12.00
2018-04-25T06:27:53.952Z,8.00
2018-04-25T06:28:53.910Z,12.00
2018-04-25T06:29:53.875Z,12.00
2018-04-25T06:30:53.830Z,12.00
2018-04-25T06:31:53.784Z,12.00
2018-04-25T06:32:53.744Z,16.00
2018-04-25T06:33:53.702Z,12.00
2018-04-25T06:34:53.662Z,8.00
2018-04-25T06:35:53.620Z,8.00
2018-04-25T06:36:53.578Z,8.00
2018-04-25T06:37:53.536Z,12.00
2018-04-25T06:38:53.491Z,16.00
2018-04-25T06:39:53.447Z,12.00
2018-04-25T06:40:53.406Z,28.00
2018-04-25T06:41:53.372Z,12.00
2018-04-25T06:42:53.322Z,12.00
2018-04-25T06:43:53.282Z,12.00
2018-04-25T06:44:53.269Z,24.00
2018-04-25T06:45:53.221Z,24.00
2018-04-25T06:46:53.156Z,12.00
2018-04-25T06:47:53.111Z,16.00
2018-04-25T06:48:53.067Z,12.00
2018-04-25T06:49:53.025Z,12.00
2018-04-25T06:50:52.979Z,20.00
2018-04-25T06:51:52.944Z,20.00
2018-04-25T06:52:52.911Z,8.00
2018-04-25T06:53:52.860Z,8.00
2018-04-25T06:54:52.819Z,8.00
2018-04-25T06:55:52.776Z,4.00
2018-04-25T06:56:52.750Z,4.00
2018-04-25T06:57:52.689Z,4.00
2018-04-25T06:58:52.655Z,8.00
2018-04-25T06:59:52.609Z,4.00
2018-04-25T07:00:52.561Z,8.00
2018-04-25T07:01:52.540Z,8.00
2018-04-25T07:02:52.482Z,8.00
2018-04-25T07:03:52.470Z,24.00
2018-04-25T07:04:52.427Z,28.00
2018-04-25T07:05:52.355Z,12.00
2018-04-25T07:06:52.314Z,12.00
2018-04-25T07:07:52.272Z,8.00
2018-04-25T07:08:52.226Z,12.00
2018-04-25T07:09:52.183Z,8.00
2018-04-25T07:10:52.143Z,8.00
2018-04-25T07:11:52.102Z,8.00
2018-04-25T07:12:52.055Z,24.00
2018-04-25T07:13:52.019Z,8.00
2018-04-25T07:14:51.974Z,20.00
2018-04-25T07:15:51.930Z,8.00
2018-04-25T07:16:51.897Z,8.00
2018-04-25T07:17:51.848Z,12.00
2018-04-25T07:18:51.806Z,12.00
2018-04-25T07:19:51.764Z,8.00
2018-04-25T07:20:52.465Z,8.00
2018-04-25T07:21:51.681Z,16.00
2018-04-25T07:22:51.636Z,28.00
2018-04-25T07:23:51.656Z,16.00
2018-04-25T07:24:51.559Z,24.00
2018-04-25T07:25:51.513Z,32.00
2018-04-25T07:26:51.476Z,28.00
2018-04-25T07:27:51.427Z,28.00
2018-04-25T07:28:51.387Z,28.00
2018-04-25T07:29:51.345Z,12.00
2018-04-25T07:30:51.302Z,12.00
2018-04-25T07:31:51.259Z,28.00
2018-04-25T07:32:51.215Z,32.00
2018-04-25T07:33:51.183Z,28.00
2018-04-25T07:34:51.146Z,32.00
2018-04-25T07:35:51.106Z,12.00
2018-04-25T07:36:51.054Z,12.00
2018-04-25T07:37:51.009Z,24.00
2018-04-25T07:38:50.968Z,32.00
2018-04-25T07:39:50.922Z,16.00
2018-04-25T07:40:50.876Z,12.00
2018-04-25T07:41:50.868Z,12.00
2018-04-25T07:42:50.797Z,8.00
2018-04-25T07:43:50.760Z,8.00
2018-04-25T07:44:50.720Z,12.00
2018-04-25T07:45:50.675Z,8.00
2018-04-25T07:46:50.630Z,8.00
2018-04-25T07:47:50.590Z,8.00
2018-04-25T07:48:50.618Z,12.00
2018-04-25T07:49:50.501Z,16.00
2018-04-25T07:50:50.472Z,28.00
2018-04-25T07:51:50.470Z,16.00
2018-04-25T07:52:50.419Z,16.00
2018-04-25T07:53:50.375Z,16.00
2018-04-25T07:54:50.341Z,20.00
2018-04-25T07:55:50.254Z,12.00
2018-04-25T07:56:50.226Z,8.00
2018-04-25T07:57:50.183Z,8.00
2018-04-25T07:58:50.128Z,4.00
2018-04-25T07:59:50.105Z,4.00
2018-04-25T08:00:50.042Z,4.00
2018-04-25T08:01:50.006Z,4.00
2018-04-25T08:02:49.959Z,4.00
2018-04-25T08:03:49.923Z,4.00
2018-04-25T08:04:49.866Z,4.00
2018-04-25T08:05:49.833Z,4.00
2018-04-25T08:06:49.786Z,4.00
2018-04-25T08:07:49.782Z,4.00
2018-04-25T08:08:49.760Z,0.00
2018-04-25T08:09:49.659Z,4.00
2018-04-25T08:10:49.622Z,4.00
2018-04-25T08:11:49.580Z,4.00
2018-04-25T08:12:49.704Z,0.00
2018-04-25T08:13:49.503Z,0.00
2018-04-25T08:14:49.504Z,4.00
2018-04-25T08:15:49.474Z,0.00
2018-04-25T08:16:49.372Z,0.00
2018-04-25T08:17:49.325Z,0.00
2018-04-25T08:18:49.278Z,0.00
2018-04-25T08:19:49.259Z,4.00
2018-04-25T08:20:49.203Z,4.00
2018-04-25T08:21:49.158Z,0.00
2018-04-25T08:22:49.124Z,4.00
2018-04-25T08:23:49.153Z,4.00
2018-04-25T08:24:49.062Z,4.00
2018-04-25T08:25:49.010Z,4.00
2018-04-25T08:26:48.947Z,4.00
2018-04-25T08:27:48.897Z,4.00
2018-04-25T08:28:48.859Z,4.00
2018-04-25T08:29:48.816Z,4.00
2018-04-25T08:30:48.777Z,4.00
2018-04-25T08:31:48.737Z,4.00
2018-04-25T08:32:48.693Z,4.00
2018-04-25T08:33:48.643Z,4.00
2018-04-25T08:34:48.607Z,4.00
2018-04-25T08:35:48.566Z,4.00
2018-04-25T08:36:48.519Z,4.00
2018-04-25T08:37:48.477Z,4.00
2018-04-25T08:38:48.434Z,4.00
2018-04-25T08:39:48.398Z,4.00
2018-04-25T08:40:48.354Z,4.00
2018-04-25T08:41:48.307Z,4.00
2018-04-25T08:42:48.267Z,4.00
2018-04-25T08:43:48.224Z,8.00
2018-04-25T08:44:48.249Z,4.00
2018-04-25T08:45:48.155Z,4.00
2018-04-25T08:46:48.104Z,4.00
2018-04-25T08:47:48.056Z,8.00
2018-04-25T08:48:48.023Z,4.00
2018-04-25T08:49:47.979Z,4.00
2018-04-25T08:50:47.967Z,8.00
2018-04-25T08:51:47.894Z,4.00
2018-04-25T08:52:47.926Z,4.00
2018-04-25T08:53:47.805Z,4.00
2018-04-25T08:54:47.786Z,4.00
2018-04-25T08:55:47.718Z,4.00
2018-04-25T08:56:47.677Z,8.00
2018-04-25T08:57:47.680Z,4.00
2018-04-25T08:58:47.594Z,8.00
2018-04-25T08:59:47.557Z,4.00
2018-04-25T09:00:47.512Z,24.00
2018-04-25T09:01:47.465Z,24.00
2018-04-25T09:02:47.471Z,12.00
2018-04-25T09:03:47.391Z,8.00
2018-04-25T09:04:47.336Z,24.00
2018-04-25T09:05:47.335Z,8.00
2018-04-25T09:06:47.254Z,12.00
2018-04-25T09:07:47.212Z,8.00
2018-04-25T09:08:47.169Z,12.00
2018-04-25T09:09:47.127Z,16.00
2018-04-25T09:10:47.093Z,12.00
2018-04-25T09:11:47.042Z,8.00
2018-04-25T09:12:47.006Z,20.00
2018-04-25T09:13:46.961Z,4.00
2018-04-25T09:14:46.920Z,8.00
2018-04-25T09:15:46.874Z,8.00
2018-04-25T09:16:46.836Z,8.00
2018-04-25T09:17:46.792Z,16.00
2018-04-25T09:18:46.747Z,8.00
2018-04-25T09:19:46.711Z,8.00
2018-04-25T09:20:46.674Z,24.00
2018-04-25T09:21:46.638Z,24.00
2018-04-25T09:22:46.575Z,24.00
2018-04-25T09:23:46.540Z,24.00
2018-04-25T09:24:46.510Z,24.00
2018-04-25T09:25:46.463Z,28.00
2018-04-25T09:26:46.408Z,20.00
2018-04-25T09:27:46.364Z,8.00
2018-04-25T09:28:46.331Z,20.00
2018-04-25T09:29:46.285Z,12.00
2018-04-25T09:30:46.244Z,8.00
2018-04-25T09:31:46.199Z,20.00
2018-04-25T09:32:46.157Z,8.00
2018-04-25T09:33:46.116Z,8.00
2018-04-25T09:34:46.075Z,28.00
2018-04-25T09:35:46.040Z,8.00
2018-04-25T09:36:45.986Z,24.00
2018-04-25T09:37:45.965Z,24.00
2018-04-25T09:38:45.907Z,24.00
2018-04-25T09:39:45.862Z,8.00
2018-04-25T09:40:45.819Z,24.00
2018-04-25T09:41:45.776Z,24.00
2018-04-25T09:42:45.738Z,8.00
2018-04-25T09:43:45.693Z,24.00
2018-04-25T09:44:45.649Z,20.00
2018-04-25T09:45:45.608Z,24.00
2018-04-25T09:46:45.571Z,24.00
2018-04-25T09:47:45.523Z,16.00
2018-04-25T09:48:45.478Z,20.00
2018-04-25T09:49:45.439Z,20.00
2018-04-25T09:50:45.397Z,24.00
2018-04-25T09:51:45.436Z,20.00
2018-04-25T09:52:45.314Z,20.00
2018-04-25T09:53:45.267Z,16.00
2018-04-25T09:54:45.226Z,20.00
2018-04-25T09:55:45.185Z,20.00
2018-04-25T09:56:45.144Z,20.00
2018-04-25T09:57:45.184Z,20.00
2018-04-25T09:58:45.062Z,20.00
2018-04-25T09:59:45.018Z,16.00
2018-04-25T10:00:44.976Z,16.00
2018-04-25T10:01:44.931Z,20.00
2018-04-25T10:02:44.893Z,12.00
2018-04-25T10:03:44.847Z,16.00
2018-04-25T10:04:44.805Z,16.00
2018-04-25T10:05:44.766Z,20.00
2018-04-25T10:06:44.724Z,16.00
2018-04-25T10:07:44.690Z,16.00
2018-04-25T10:08:44.638Z,16.00
2018-04-25T10:09:44.599Z,16.00
2018-04-25T10:10:44.556Z,16.00
2018-04-25T10:11:44.517Z,16.00
2018-04-25T10:12:44.468Z,16.00
2018-04-25T10:13:44.435Z,16.00
2018-04-25T10:14:44.392Z,12.00
2018-04-25T10:15:44.347Z,16.00
2018-04-25T10:16:44.302Z,16.00
2018-04-25T10:17:44.263Z,16.00
2018-04-25T10:18:44.215Z,16.00
2018-04-25T10:19:44.172Z,12.00
2018-04-25T10:20:44.132Z,12.00
2018-04-25T10:21:44.088Z,12.00
2018-04-25T10:22:44.045Z,12.00
2018-04-25T10:23:44.006Z,12.00
2018-04-25T10:24:43.965Z,12.00
2018-04-25T10:25:43.929Z,12.00
2018-04-25T10:26:43.887Z,12.00
2018-04-25T10:27:43.849Z,12.00
2018-04-25T10:28:43.792Z,12.00
2018-04-25T10:29:43.755Z,12.00
2018-04-25T10:30:43.712Z,12.00
2018-04-25T10:31:43.667Z,12.00
2018-04-25T10:32:43.627Z,12.00
2018-04-25T10:33:43.588Z,12.00
2018-04-25T10:34:43.542Z,12.00
2018-04-25T10:35:43.518Z,12.00
2018-04-25T10:36:43.459Z,12.00
2018-04-25T10:37:43.412Z,12.00
2018-04-25T10:38:43.393Z,12.00
2018-04-25T10:39:43.353Z,12.00
2018-04-25T10:40:43.290Z,12.00
2018-04-25T10:41:43.254Z,12.00
2018-04-25T10:42:43.204Z,12.00
2018-04-25T10:43:43.167Z,8.00
2018-04-25T10:44:43.123Z,16.00
2018-04-25T10:45:43.075Z,12.00
2018-04-25T10:46:43.040Z,12.00
2018-04-25T10:47:43.002Z,16.00
2018-04-25T10:48:43.073Z,16.00
2018-04-25T10:49:42.920Z,16.00
2018-04-25T10:50:42.872Z,12.00
2018-04-25T10:51:42.824Z,12.00
2018-04-25T10:52:42.779Z,16.00
2018-04-25T10:53:42.740Z,16.00
2018-04-25T10:54:42.698Z,8.00
2018-04-25T10:55:42.697Z,12.00
2018-04-25T10:56:42.611Z,12.00
2018-04-25T10:57:42.571Z,12.00
2018-04-25T10:58:42.559Z,8.00
2018-04-25T10:59:42.486Z,8.00
2018-04-25T11:00:42.442Z,8.00
2018-04-25T11:01:42.401Z,8.00
2018-04-25T11:02:42.359Z,8.00
2018-04-25T11:03:42.319Z,8.00
2018-04-25T11:04:42.274Z,4.00
2018-04-25T11:05:42.232Z,8.00
2018-04-25T11:06:42.190Z,8.00
2018-04-25T11:07:42.154Z,4.00
2018-04-25T11:08:42.105Z,4.00
2018-04-25T11:09:42.062Z,4.00
2018-04-25T11:10:42.024Z,4.00
2018-04-25T11:11:41.980Z,4.00
2018-04-25T11:12:41.940Z,4.00
2018-04-25T11:13:41.892Z,4.00
2018-04-25T11:14:41.883Z,8.00
2018-04-25T11:15:41.811Z,8.00
2018-04-25T11:16:41.770Z,8.00
2018-04-25T11:17:41.727Z,8.00
2018-04-25T11:18:41.684Z,4.00
2018-04-25T11:19:41.644Z,4.00
2018-04-25T11:20:41.596Z,4.00
2018-04-25T11:21:41.555Z,8.00
2018-04-25T11:22:41.516Z,8.00
2018-04-25T11:23:41.475Z,8.00
2018-04-25T11:24:41.433Z,4.00
2018-04-25T11:25:41.392Z,4.00
2018-04-25T11:26:41.425Z,4.00
2018-04-25T11:27:41.305Z,8.00
2018-04-25T11:28:41.261Z,4.00
2018-04-25T11:29:41.231Z,4.00
2018-04-25T11:30:41.173Z,4.00
2018-04-25T11:31:41.138Z,4.00
2018-04-25T11:32:41.100Z,8.00
2018-04-25T11:33:41.065Z,8.00
2018-04-25T11:34:41.022Z,4.00
2018-04-25T11:35:40.967Z,4.00
2018-04-25T11:36:40.923Z,4.00
2018-04-25T11:37:40.883Z,4.00
2018-04-25T11:38:40.835Z,4.00
2018-04-25T11:39:40.798Z,4.00
2018-04-25T11:40:40.761Z,4.00
2018-04-25T11:41:40.710Z,4.00
2018-04-25T11:42:40.668Z,8.00
2018-04-25T11:43:40.629Z,8.00
2018-04-25T11:44:40.587Z,8.00
2018-04-25T11:45:40.541Z,8.00
2018-04-25T11:46:40.508Z,8.00
2018-04-25T11:47:40.459Z,4.00
2018-04-25T11:48:40.417Z,4.00
2018-04-25T11:49:40.374Z,8.00
2018-04-25T11:50:40.336Z,8.00
2018-04-25T11:51:40.291Z,8.00
2018-04-25T11:52:40.250Z,8.00
2018-04-25T11:53:40.213Z,4.00
2018-04-25T11:54:40.163Z,8.00
2018-04-25T11:55:40.127Z,8.00
2018-04-25T11:56:40.093Z,12.00
2018-04-25T11:57:40.040Z,8.00
2018-04-25T11:58:40.000Z,8.00
2018-04-25T11:59:39.986Z,8.00
2018-04-25T12:00:39.917Z,8.00
2018-04-25T12:01:39.866Z,8.00
2018-04-25T12:02:39.825Z,12.00
2018-04-25T12:03:39.783Z,8.00
2018-04-25T12:04:39.743Z,8.00
2018-04-25T12:05:39.701Z,8.00
2018-04-25T12:06:39.655Z,8.00
2018-04-25T12:07:39.615Z,8.00
2018-04-25T12:08:39.569Z,8.00
2018-04-25T12:09:39.526Z,8.00
2018-04-25T12:10:39.519Z,8.00
2018-04-25T12:11:39.454Z,8.00
2018-04-25T12:12:39.404Z,4.00
2018-04-25T12:13:39.371Z,8.00
2018-04-25T12:14:39.332Z,8.00
2018-04-25T12:15:39.277Z,8.00
2018-04-25T12:16:39.238Z,8.00
2018-04-25T12:17:39.197Z,8.00
2018-04-25T12:18:39.189Z,8.00
2018-04-25T12:19:39.110Z,8.00
2018-04-25T12:20:39.069Z,8.00
2018-04-25T12:21:39.053Z,4.00
2018-04-25T12:22:39.102Z,8.00
2018-04-25T12:23:38.940Z,4.00
2018-04-25T12:24:38.902Z,8.00
2018-04-25T12:25:38.881Z,4.00
2018-04-25T12:26:38.821Z,8.00
2018-04-25T12:27:38.771Z,4.00
2018-04-25T12:28:38.728Z,8.00
2018-04-25T12:29:38.690Z,8.00
2018-04-25T12:30:38.646Z,8.00
2018-04-25T12:31:38.603Z,8.00
2018-04-25T12:32:38.556Z,4.00
2018-04-25T12:33:38.513Z,8.00
2018-04-25T12:34:38.479Z,8.00
2018-04-25T12:35:38.434Z,8.00
2018-04-25T12:36:38.392Z,8.00
2018-04-25T12:37:38.345Z,8.00
2018-04-25T12:38:38.306Z,8.00
2018-04-25T12:39:38.268Z,8.00
2018-04-25T12:40:38.222Z,8.00
2018-04-25T12:41:38.190Z,4.00
2018-04-25T12:42:38.136Z,4.00
2018-04-25T12:43:38.092Z,8.00
2018-04-25T12:44:38.053Z,8.00
2018-04-25T12:45:38.008Z,8.00
2018-04-25T12:46:37.967Z,4.00
2018-04-25T12:47:37.924Z,4.00
2018-04-25T12:48:37.880Z,4.00
2018-04-25T12:49:37.848Z,4.00
2018-04-25T12:50:37.801Z,4.00
2018-04-25T12:51:37.755Z,4.00
2018-04-25T12:52:37.717Z,4.00
2018-04-25T12:53:37.672Z,4.00
2018-04-25T12:54:37.632Z,8.00
2018-04-25T12:55:37.588Z,8.00
2018-04-25T12:56:37.543Z,4.00
2018-04-25T12:57:37.505Z,4.00
2018-04-25T12:58:37.461Z,8.00
2018-04-25T12:59:37.417Z,8.00
2018-04-25T13:00:37.378Z,8.00
2018-04-25T13:01:37.356Z,4.00
2018-04-25T13:02:37.289Z,4.00
2018-04-25T13:03:37.251Z,4.00
2018-04-25T13:04:37.212Z,4.00
2018-04-25T13:05:37.163Z,4.00
2018-04-25T13:06:37.123Z,4.00
2018-04-25T13:07:37.081Z,4.00
2018-04-25T13:08:37.040Z,4.00
2018-04-25T13:09:36.994Z,8.00
2018-04-25T13:10:36.951Z,4.00
2018-04-25T13:11:36.913Z,8.00
2018-04-25T13:12:36.868Z,4.00
2018-04-25T13:13:36.830Z,8.00
2018-04-25T13:14:36.785Z,8.00
2018-04-25T13:15:36.747Z,8.00
2018-04-25T13:16:36.697Z,8.00
2018-04-25T13:17:36.660Z,4.00
2018-04-25T13:18:36.617Z,4.00
2018-04-25T13:19:36.575Z,4.00
2018-04-25T13:20:36.539Z,4.00
2018-04-25T13:21:36.491Z,4.00
2018-04-25T13:22:36.449Z,4.00
2018-04-25T13:23:36.407Z,4.00
2018-04-25T13:24:36.359Z,4.00